Latest Weather Observations for Aireys Inlet

IDV60801

Issued at 4:43 pm EST Sunday 11 April 2021 (issued every 10 minutes, with the page automatically refreshed every 10 minutes)

About weather observations | Map of weather stations | Latest weather observations for VIC | Other Formats
Station Details ID: 090180 Name: AIREYS INLET Lat: -38.46 Lon: 144.09 Height: 105.0 m
Data from the previous 72 hours. | See also: Recent months at Aireys Inlet
Date/Time
EST
Temp
°C
App
Temp
°C
Dew
Point
°C
Rel
Hum
%
Delta-T
°C
Wind Press
QNH
hPa
Press
MSL
hPa
Rain since
9am
mm
Dir  Spd
km/h
Gust
km/h
Spd
kts
Gust
kts
11/04:30pm 10.8 5.1 6.7 76 1.9 WSW 26 37 14 20 - - 0.2
11/04:13pm 10.7 4.4 7.4 80 1.6 SW 30 50 16 27 - - 0.2
11/04:00pm 11.1 3.8 7.2 77 1.9 SW 35 54 19 29 - - 0.0
11/03:30pm 10.8 3.4 6.7 76 1.9 SW 35 63 19 34 - - 0.0
11/03:09pm 12.7 4.1 4.9 59 3.6 SW 39 57 21 31 - - 0.0
11/03:00pm 13.1 4.5 4.8 57 3.8 SW 39 57 21 31 - - 0.0
11/02:30pm 13.6 4.4 3.4 50 4.6 SW 41 67 22 36 - - 0.0
11/02:00pm 13.5 4.1 4.4 54 4.2 SW 43 65 23 35 - - 0.0
11/01:30pm 12.8 2.5 2.6 50 4.5 SW 46 74 25 40 - - 0.0
11/01:00pm 12.8 2.8 4.5 57 3.8 SW 46 74 25 40 - - 0.0
11/12:30pm 12.6 3.5 4.1 56 3.9 SW 41 67 22 36 - - 0.0
11/12:00pm 11.7 2.3 5.6 66 2.8 SW 44 76 24 41 - - 0.0
11/11:57am 12.2 2.9 4.9 61 3.4 SW 43 76 23 41 - - 0.0
11/11:32am 11.7 3.1 4.7 62 3.2 WSW 39 57 21 31 - - 0.0
11/11:30am 11.7 3.1 4.7 62 3.2 WSW 39 54 21 29 - - 0.0
11/11:00am 12.3 2.6 3.8 56 3.8 SW 44 70 24 38 - - 0.0
11/10:30am 11.7 2.3 4.4 61 3.3 WSW 43 63 23 34 - - 0.0
11/10:17am 11.5 3.3 4.7 63 3.1 SW 37 74 20 40 - - 0.0
11/10:03am 10.8 3.8 4.0 63 3.0 WSW 30 52 16 28 - - 0.0
11/10:00am 10.7 4.1 4.0 63 3.0 WSW 28 44 15 24 - - 0.0
11/09:30am 10.3 3.0 4.5 67 2.6 WSW 32 48 17 26 - - 0.0
11/09:00am 10.1 2.9 4.9 70 2.4 WSW 32 56 17 30 - - 7.8
11/08:56am 10.0 3.6 5.0 71 2.3 WSW 28 56 15 30 - - 7.8
11/08:30am 8.7 2.8 6.0 83 1.2 WSW 26 41 14 22 - - 7.8
11/08:00am 8.7 3.0 5.1 78 1.6 WSW 24 39 13 21 - - 7.4
11/07:30am 8.3 0.5 5.1 80 1.4 WSW 35 59 19 32 - - 7.4
11/07:01am 8.5 1.0 4.3 75 1.9 WSW 33 54 18 29 - - 7.0
11/07:00am 8.5 1.2 4.3 75 1.9 WSW 32 48 17 26 - - 7.0
11/06:45am 8.0 1.7 5.5 84 1.1 WSW 28 50 15 27 - - 7.0
11/06:30am 7.9 1.8 4.8 81 1.4 WSW 26 41 14 22 - - 6.8
11/06:00am 7.7 1.5 6.0 89 0.8 WSW 28 46 15 25 - - 6.4
11/05:52am 7.4 1.0 5.0 85 1.1 WSW 28 48 15 26 - - 5.8
11/05:30am 7.5 1.8 4.8 83 1.2 W 24 33 13 18 - - 5.4
11/05:07am 7.7 1.3 5.2 84 1.1 W 28 46 15 25 - - 5.4
11/05:00am 7.3 2.6 5.0 85 1.0 W 19 30 10 16 - - 5.4
11/04:30am 6.9 2.5 4.9 87 0.9 WNW 17 26 9 14 - - 5.2
11/04:00am 7.2 1.8 4.5 83 1.2 W 22 37 12 20 - - 3.8
11/03:30am 7.6 1.4 4.2 79 1.5 W 26 41 14 22 - - 3.2
11/03:20am 7.7 1.1 4.3 79 1.5 W 28 48 15 26 - - 3.2
11/03:00am 7.8 0.7 3.7 75 1.8 WSW 30 44 16 24 - - 3.2
11/02:44am 7.9 1.2 3.9 76 1.7 W 28 46 15 25 - - 3.2
11/02:30am 7.3 2.2 3.9 79 1.5 W 20 30 11 16 - - 3.2
11/02:11am 7.4 1.6 4.5 82 1.3 W 24 52 13 28 - - 3.0
11/02:00am 7.1 2.1 4.4 83 1.2 WNW 20 28 11 15 - - 3.0
11/01:31am 7.4 0.9 4.9 84 1.1 W 28 52 15 28 - - 3.0
11/01:30am 7.4 1.3 4.9 84 1.1 W 26 52 14 28 - - 3.0
11/01:00am 7.1 2.2 4.2 82 1.3 W 19 24 10 13 - - 2.6
11/12:30am 7.1 2.7 4.9 86 1.0 W 17 30 9 16 - - 2.6
11/12:16am 7.6 0.9 5.4 86 1.0 WSW 30 50 16 27 - - 2.6
11/12:12am 7.4 1.3 4.9 84 1.1 WSW 26 50 14 27 - - 2.6
11/12:00am 7.6 2.7 4.0 78 1.6 W 19 30 10 16 - - 2.2
 
Date/Time
EST
Temp
°C
App
Temp
°C
Dew
Point
°C
Rel
Hum
%
Delta-T
°C
Wind Press
QNH
hPa
Press
MSL
hPa
Rain since
9am
mm
Dir  Spd
km/h
Gust
km/h
Spd
kts
Gust
kts
10/11:30pm 7.3 1.9 4.4 82 1.3 W 22 30 12 16 - - 2.2
10/11:00pm 7.0 2.6 4.7 85 1.0 WNW 17 22 9 12 - - 2.2
10/10:30pm 7.9 2.7 3.8 75 1.8 W 20 26 11 14 - - 2.0
10/10:00pm 7.2 3.1 4.5 83 1.2 WNW 15 24 8 13 - - 2.0
10/09:30pm 7.4 2.6 4.4 81 1.3 WNW 19 28 10 15 - - 2.0
10/09:00pm 7.7 3.3 4.5 80 1.4 W 17 26 9 14 - - 2.0
10/08:30pm 7.6 2.8 4.6 81 1.3 W 19 24 10 13 - - 2.0
10/08:00pm 7.9 2.5 4.7 80 1.4 W 22 35 12 19 - - 2.0
10/07:33pm 8.2 1.7 4.8 79 1.5 WSW 28 48 15 26 - - 2.0
10/07:30pm 8.5 2.4 4.9 78 1.6 W 26 39 14 21 - - 1.8
10/07:00pm 8.7 4.3 4.7 76 1.8 W 17 32 9 17 - - 1.6
10/06:30pm 8.5 4.6 5.3 80 1.4 W 15 26 8 14 - - 1.6
10/06:00pm 8.8 4.0 4.8 76 1.8 W 19 33 10 18 - - 1.6
10/05:30pm 9.4 3.3 4.8 73 2.1 W 26 43 14 23 - - 1.6
10/05:00pm 8.8 1.2 5.7 81 1.4 W 35 61 19 33 - - 1.6
10/04:34pm 9.8 3.7 6.5 80 1.5 WSW 28 50 15 27 - - 1.2
10/04:30pm 10.0 4.4 7.1 82 1.4 WSW 26 39 14 21 - - 1.0
10/04:00pm 11.4 5.7 6.7 73 2.2 W 26 50 14 27 - - 0.6
10/03:31pm 13.0 6.4 4.2 55 4.0 W 28 48 15 26 - - 0.6
10/03:30pm 13.0 6.0 3.9 54 4.1 W 30 48 16 26 - - 0.6
10/03:07pm 13.9 7.4 4.8 54 4.2 W 28 46 15 25 - - 0.6
10/03:00pm 13.5 8.1 4.4 54 4.2 W 22 46 12 25 - - 0.6
10/02:30pm 11.8 4.4 5.2 64 3.1 WSW 33 65 18 35 - - 0.6
10/02:20pm 14.4 8.0 5.0 53 4.4 WSW 28 52 15 28 - - 0.4
10/02:00pm 14.8 8.2 6.1 56 4.2 WSW 30 44 16 24 - - 0.4
10/01:45pm 13.2 6.0 4.9 57 3.9 SW 32 52 17 28 - - 0.4
10/01:30pm 14.3 7.2 5.7 56 4.1 WSW 32 46 17 25 - - 0.4
10/01:00pm 14.5 5.6 3.3 47 5.1 WSW 39 61 21 33 - - 0.4
10/12:54pm 15.5 8.8 3.6 45 5.5 WSW 28 50 15 27 - - 0.4
10/12:30pm 14.8 9.6 7.1 60 3.8 WSW 24 39 13 21 - - 0.4
10/12:07pm 13.0 6.2 7.9 71 2.5 WSW 33 57 18 31 - - 0.4
10/12:00pm 15.2 10.5 6.2 55 4.4 WSW 20 46 11 25 - - 0.4
10/11:30am 14.8 8.9 5.9 55 4.3 WSW 26 43 14 23 - - 0.4
10/11:00am 14.1 8.6 7.4 64 3.3 WSW 26 43 14 23 - - 0.4
10/10:30am 14.1 9.9 9.9 76 2.2 WSW 22 37 12 20 - - 0.4
10/10:00am 13.1 11.7 12.2 94 0.5 WSW 11 19 6 10 - - 0.4
10/09:30am 12.5 11.7 11.6 94 0.5 W 7 11 4 6 - - 0.4
10/09:00am 12.4 9.5 11.1 92 0.7 W 17 26 9 14 - - 0.2
10/08:30am 12.7 7.5 10.2 85 1.3 WNW 28 44 15 24 - - 0.2
10/08:00am 12.3 8.5 9.9 85 1.2 WNW 20 37 11 20 - - 0.2
10/07:30am 11.4 8.2 10.1 92 0.7 WNW 17 32 9 17 - - 0.2
10/07:00am 11.1 7.9 10.0 93 0.6 NW 17 28 9 15 - - 0.2
10/06:30am 11.4 8.2 9.8 90 0.8 WNW 17 33 9 18 - - 0.2
10/06:00am 11.1 8.9 9.5 90 0.8 NW 11 22 6 12 - - 0.2
10/05:30am 10.9 8.3 9.2 89 0.9 NNW 13 19 7 10 - - 0.2
10/05:00am 11.2 8.2 9.1 87 1.1 NW 15 26 8 14 - - 0.2
10/04:30am 11.0 7.0 8.9 87 1.0 NW 20 28 11 15 - - 0.2
10/04:00am 11.1 6.6 8.7 85 1.2 NW 22 44 12 24 - - 0.2
10/03:30am 10.7 6.8 8.6 87 1.0 NW 19 28 10 15 - - 0.2
10/03:00am 11.2 7.4 7.7 79 1.7 NW 17 20 9 11 - - 0.2
10/02:30am 11.3 7.0 7.2 76 2.0 NW 19 26 10 14 - - 0.2
10/02:00am 11.6 7.7 6.9 73 2.3 WNW 17 24 9 13 - - 0.2
10/01:30am 11.4 7.1 7.1 75 2.1 NW 19 24 10 13 - - 0.2
10/01:00am 11.6 7.7 7.1 74 2.2 WNW 17 22 9 12 - - 0.2
10/12:30am 11.8 8.3 7.3 74 2.2 WNW 15 20 8 11 - - 0.2
10/12:00am 11.7 7.5 7.4 75 2.1 W 19 33 10 18 - - 0.2
 
Date/Time
EST
Temp
°C
App
Temp
°C
Dew
Point
°C
Rel
Hum
%
Delta-T
°C
Wind Press
QNH
hPa
Press
MSL
hPa
Rain since
9am
mm
Dir  Spd
km/h
Gust
km/h
Spd
kts
Gust
kts
09/11:30pm 11.4 8.3 7.1 75 2.1 WNW 13 19 7 10 - - 0.2
09/11:00pm 11.4 7.1 7.1 75 2.1 WNW 19 30 10 16 - - 0.2
09/10:30pm 11.5 10.0 7.0 74 2.2 W 4 6 2 3 - - 0.2
09/10:00pm 11.2 9.7 6.7 74 2.1 WNW 4 7 2 4 - - 0.2
09/09:30pm 10.9 9.7 6.6 75 2.0 NNW 2 6 1 3 - - 0.2
09/09:00pm 10.7 9.2 6.8 77 1.9 WNW 4 6 2 3 - - 0.2
09/08:30pm 10.0 8.1 6.7 80 1.6 NNW 6 9 3 5 - - 0.2
09/08:00pm 10.8 8.7 6.6 75 2.0 WNW 7 11 4 6 - - 0.2
09/07:30pm 11.9 9.3 6.2 68 2.7 W 9 15 5 8 - - 0.2
09/07:00pm 12.1 9.1 6.2 67 2.8 W 11 15 6 8 - - 0.2
09/06:30pm 12.6 9.6 6.0 64 3.1 WSW 11 15 6 8 - - 0.2
09/06:00pm 13.3 10.3 6.2 62 3.4 WSW 11 17 6 9 - - 0.2
09/05:30pm 14.2 10.7 7.0 62 3.5 WSW 15 22 8 12 - - 0.2
09/05:00pm 14.0 9.5 7.1 63 3.4 SW 20 30 11 16 - - 0.2
09/04:30pm 14.1 9.8 6.9 62 3.5 SW 19 26 10 14 - - 0.2
09/04:00pm 14.9 10.7 7.5 61 3.7 SW 19 30 10 16 - - 0.2
09/03:30pm 15.4 10.5 6.9 57 4.2 SW 22 32 12 17 - - 0.2
09/03:00pm 14.3 9.5 7.4 63 3.4 SW 22 35 12 19 - - 0.2
09/02:30pm 14.4 10.1 7.0 61 3.6 SSW 19 28 10 15 - - 0.2
09/02:00pm 15.4 10.0 7.9 61 3.8 SW 26 37 14 20 - - 0.2
09/01:30pm 15.9 10.7 7.1 56 4.4 SW 24 37 13 20 - - 0.2
09/01:00pm 14.9 9.2 6.5 57 4.1 SW 26 35 14 19 - - 0.2
09/12:30pm 15.4 11.5 9.3 67 3.2 SW 20 33 11 18 - - 0.2
09/12:00pm 14.3 11.0 9.5 73 2.5 WSW 17 33 9 18 - - 0.2
09/11:30am 12.4 8.9 10.1 86 1.2 WSW 19 32 10 17 - - 0.2
09/11:00am 14.9 9.9 8.2 64 3.4 WSW 24 32 13 17 - - 0.0
09/10:30am 14.4 11.0 9.2 71 2.7 WSW 17 26 9 14 - - 0.0
09/10:00am 13.1 6.9 9.4 78 1.9 WSW 32 44 17 24 - - 0.0
09/09:30am 13.4 8.3 9.1 75 2.2 SW 26 39 14 21 - - 0.0
09/09:00am 13.7 9.0 7.9 68 2.9 SW 22 43 12 23 - - 4.2
09/08:30am 13.6 11.0 7.8 68 2.9 W 11 17 6 9 - - 4.2
09/08:00am 12.2 10.0 7.7 74 2.2 WNW 9 13 5 7 - - 4.2
09/07:30am 11.9 8.4 7.2 73 2.3 W 15 22 8 12 - - 4.2
09/07:00am 12.0 8.1 6.9 71 2.5 WSW 17 22 9 12 - - 4.2
09/06:30am 12.0 7.9 6.3 68 2.7 W 17 20 9 11 - - 4.2
09/06:00am 12.1 8.0 6.4 68 2.7 W 17 20 9 11 - - 4.2
09/05:30am 12.1 7.7 6.6 69 2.6 WSW 19 26 10 14 - - 4.2
09/05:00am 12.6 8.7 7.3 70 2.6 W 17 26 9 14 - - 4.2
09/04:30am 12.9 8.9 8.4 74 2.2 WSW 19 28 10 15 - - 4.2
09/04:00am 13.1 10.8 10.6 85 1.3 WSW 13 19 7 10 - - 4.2
09/03:30am 13.4 10.0 10.6 83 1.5 SW 19 30 10 16 - - 4.2
09/03:00am 13.3 10.9 11.4 88 1.0 WSW 15 22 8 12 - - 4.2
09/02:30am 13.7 9.2 11.4 86 1.2 SW 26 39 14 21 - - 4.2
09/02:00am 13.9 9.3 12.3 90 0.9 SW 28 41 15 22 - - 4.2
09/01:30am 14.2 10.1 12.8 91 0.8 SW 26 35 14 19 - - 4.2
09/01:00am 14.4 10.6 13.6 95 0.4 SW 26 37 14 20 - - 4.2
09/12:30am 14.3 10.8 13.5 95 0.4 SW 24 41 13 22 - - 4.2
09/12:00am 15.5 13.7 14.4 93 0.6 SW 17 35 9 19 - - 4.0
 
Date/Time
EST
Temp
°C
App
Temp
°C
Dew
Point
°C
Rel
Hum
%
Delta-T
°C
Wind Press
QNH
hPa
Press
MSL
hPa
Rain since
9am
mm
Dir  Spd
km/h
Gust
km/h
Spd
kts
Gust
kts
08/11:30pm 15.8 13.4 14.3 91 0.9 WNW 20 33 11 18 - - 2.8
08/11:00pm 16.0 13.5 14.0 88 1.1 WNW 20 33 11 18 - - 1.4
08/10:30pm 16.7 14.0 13.0 79 2.1 W 19 32 10 17 - - 0.2
08/10:00pm 17.5 14.7 12.6 73 2.7 W 19 26 10 14 - - 0.0
08/09:30pm 18.3 15.7 12.1 67 3.4 W 17 28 9 15 - - 0.0
08/09:00pm 19.3 15.5 11.1 59 4.5 WSW 22 35 12 19 - - 0.0
08/08:30pm 19.7 15.8 9.6 52 5.4 WSW 20 32 11 17 - - 0.0
08/08:00pm 19.8 16.8 7.9 46 6.2 WSW 13 20 7 11 - - 0.0
08/07:30pm 20.4 16.1 7.7 44 6.6 W 20 33 11 18 - - 0.0
08/07:00pm 21.7 17.4 6.8 38 7.6 W 19 28 10 15 - - 0.0
08/06:30pm 22.2 18.6 6.8 37 7.9 W 15 24 8 13 - - 0.0
08/06:00pm 21.0 18.5 11.1 53 5.5 WSW 15 24 8 13 - - 0.0
08/05:30pm 20.0 18.9 13.0 64 4.0 SW 11 17 6 9 - - 0.0
08/05:00pm 23.2 20.9 10.3 44 7.1 WSW 13 22 7 12 - - 0.0

Other formats

Comma delimited format used in spreadsheet applications
http://www.bom.gov.au/fwo/IDV60801/IDV60801.94846.axf

JavaScript Object Notation format (JSON) in row-major order
http://www.bom.gov.au/fwo/IDV60801/IDV60801.94846.json

Data quality

Most of these data are generated automatically and are frequently updated. Quality checks on data are not normally performed. It is possible for incorrect values to appear. Refer to information at About Latest Weather Observations and please check the disclaimer before using these data.